createdAt,value
2023-04-21T00:00:31.492Z,151.98
2023-04-21T00:01:31.562Z,148.26
2023-04-21T00:02:32.794Z,151.06
2023-04-21T00:03:31.664Z,148.02
2023-04-21T00:04:31.769Z,148.21
2023-04-21T00:05:31.868Z,149.20
2023-04-21T00:06:31.675Z,145.76
2023-04-21T00:07:31.717Z,146.81
2023-04-21T00:08:31.719Z,146.39
2023-04-21T00:09:31.795Z,145.16
2023-04-21T00:10:31.851Z,146.33
2023-04-21T00:11:31.805Z,148.23
2023-04-21T00:12:31.837Z,147.73
2023-04-21T00:13:31.847Z,148.06
2023-04-21T00:14:31.908Z,146.80
2023-04-21T00:15:31.931Z,146.28
2023-04-21T00:16:32.151Z,145.36
2023-04-21T00:17:32.010Z,145.98
2023-04-21T00:18:32.050Z,144.08
2023-04-21T00:19:32.068Z,145.98
2023-04-21T00:20:32.098Z,147.62
2023-04-21T00:21:32.115Z,147.02
2023-04-21T00:22:32.132Z,149.44
2023-04-21T00:23:32.191Z,147.21
2023-04-21T00:24:32.212Z,147.76
2023-04-21T00:25:32.239Z,146.59
2023-04-21T00:26:32.290Z,148.30
2023-04-21T00:27:32.374Z,147.07
2023-04-21T00:28:32.327Z,146.03
2023-04-21T00:29:32.349Z,147.51
2023-04-21T00:30:32.382Z,147.73
2023-04-21T00:31:32.523Z,147.06
2023-04-21T00:32:32.486Z,148.72
2023-04-21T00:33:32.477Z,146.77
2023-04-21T00:34:32.514Z,147.08
2023-04-21T00:35:32.572Z,145.51
2023-04-21T00:36:32.573Z,146.85
2023-04-21T00:37:32.635Z,147.19
2023-04-21T00:38:32.658Z,147.15
2023-04-21T00:39:32.679Z,146.98
2023-04-21T00:40:32.704Z,146.92
2023-04-21T00:41:32.774Z,146.97
2023-04-21T00:42:32.765Z,143.85
2023-04-21T00:43:32.770Z,144.83
2023-04-21T00:44:32.803Z,148.75
2023-04-21T00:45:32.855Z,145.97
2023-04-21T00:46:32.907Z,144.03
2023-04-21T00:47:32.982Z,144.40
2023-04-21T00:48:33.258Z,145.97
2023-04-21T00:49:32.999Z,144.80
2023-04-21T00:50:33.077Z,147.43
2023-04-21T00:51:33.119Z,145.84
2023-04-21T00:52:33.087Z,147.22
2023-04-21T00:53:33.119Z,146.60
2023-04-21T00:54:33.152Z,146.66
2023-04-21T00:55:33.199Z,145.45
2023-04-21T00:56:33.263Z,144.97
2023-04-21T00:57:33.248Z,147.19
2023-04-21T00:58:33.271Z,148.90
2023-04-21T00:59:33.317Z,146.72
2023-04-21T01:00:33.382Z,144.87
2023-04-21T01:01:33.452Z,144.55
2023-04-21T01:02:33.596Z,145.56
2023-04-21T01:03:33.653Z,145.58
2023-04-21T01:04:33.514Z,147.83
2023-04-21T01:05:33.556Z,145.05
2023-04-21T01:06:33.572Z,142.78
2023-04-21T01:07:33.618Z,145.62
2023-04-21T01:08:33.647Z,144.79
2023-04-21T01:09:33.675Z,143.26
2023-04-21T01:10:33.762Z,147.45
2023-04-21T01:11:33.795Z,144.70
2023-04-21T01:12:33.790Z,146.04
2023-04-21T01:13:33.839Z,145.04
2023-04-21T01:14:33.849Z,144.88
2023-04-21T01:15:33.918Z,141.77
2023-04-21T01:16:33.995Z,143.78
2023-04-21T01:17:33.974Z,146.68
2023-04-21T01:18:34.011Z,143.74
2023-04-21T01:19:34.063Z,145.02
2023-04-21T01:20:34.079Z,144.08
2023-04-21T01:21:34.149Z,145.99
2023-04-21T01:22:34.194Z,147.37
2023-04-21T01:23:34.198Z,144.80
2023-04-21T01:24:34.264Z,146.47
2023-04-21T01:25:34.285Z,148.74
2023-04-21T01:26:34.361Z,142.50
2023-04-21T01:27:34.364Z,145.39
2023-04-21T01:28:34.398Z,143.48
2023-04-21T01:29:34.453Z,143.37
2023-04-21T01:30:34.493Z,145.01
2023-04-21T01:31:34.613Z,150.58
2023-04-21T01:32:34.580Z,144.63
2023-04-21T01:33:34.588Z,146.52
2023-04-21T01:34:34.649Z,146.65
2023-04-21T01:35:34.676Z,146.07
2023-04-21T01:36:34.745Z,145.18
2023-04-21T01:37:34.768Z,146.79
2023-04-21T01:38:34.773Z,147.91
2023-04-21T01:39:34.797Z,147.31
2023-04-21T01:40:34.884Z,148.14
2023-04-21T01:41:34.909Z,146.58
2023-04-21T01:42:34.987Z,144.18
2023-04-21T01:43:34.974Z,142.66
2023-04-21T01:44:35.007Z,143.34
2023-04-21T01:45:35.075Z,147.35
2023-04-21T01:46:35.224Z,151.04
2023-04-21T01:47:35.220Z,144.40
2023-04-21T01:48:35.165Z,145.00
2023-04-21T01:49:35.324Z,144.12
2023-04-21T01:50:35.308Z,148.30
2023-04-21T01:51:35.293Z,147.31
2023-04-21T01:52:35.386Z,143.96
2023-04-21T01:53:35.406Z,143.41
2023-04-21T01:54:35.416Z,143.75
2023-04-21T01:55:35.484Z,140.89
2023-04-21T01:56:35.598Z,145.67
2023-04-21T01:57:35.580Z,149.85
2023-04-21T01:58:35.656Z,142.55
2023-04-21T01:59:35.637Z,145.54
2023-04-21T02:00:35.689Z,146.26
2023-04-21T02:01:35.778Z,144.43
2023-04-21T02:02:35.879Z,143.84
2023-04-21T02:03:35.989Z,146.29
2023-04-21T02:04:36.061Z,144.02
2023-04-21T02:05:35.944Z,145.48
2023-04-21T02:06:36.150Z,140.54
2023-04-21T02:07:35.993Z,147.39
2023-04-21T02:08:36.024Z,146.63
2023-04-21T02:09:36.084Z,147.03
2023-04-21T02:10:36.126Z,143.08
2023-04-21T02:11:36.194Z,147.60
2023-04-21T02:12:36.209Z,151.46
2023-04-21T02:13:36.215Z,151.59
2023-04-21T02:14:36.276Z,142.19
2023-04-21T02:15:36.338Z,144.15
2023-04-21T02:16:36.411Z,142.62
2023-04-21T02:17:36.428Z,145.12
2023-04-21T02:18:36.434Z,148.19
2023-04-21T02:19:36.478Z,148.14
2023-04-21T02:20:36.498Z,149.14
2023-04-21T02:21:36.562Z,145.90
2023-04-21T02:22:36.621Z,147.18
2023-04-21T02:23:36.664Z,148.10
2023-04-21T02:24:36.677Z,147.85
2023-04-21T02:25:36.694Z,151.69
2023-04-21T02:26:36.773Z,148.60
2023-04-21T02:27:36.787Z,139.94
2023-04-21T02:28:36.826Z,148.70
2023-04-21T02:29:36.884Z,142.37
2023-04-21T02:30:36.921Z,148.33
2023-04-21T02:31:49.735Z,143.15
2023-04-21T02:32:38.135Z,142.70
2023-04-21T02:33:36.956Z,143.19
2023-04-21T02:34:36.924Z,143.81
2023-04-21T02:35:36.945Z,145.50
2023-04-21T02:36:36.936Z,148.71
2023-04-21T02:37:36.905Z,145.12
2023-04-21T02:38:36.942Z,150.62
2023-04-21T02:39:36.904Z,144.57
2023-04-21T02:40:36.904Z,143.00
2023-04-21T02:41:36.905Z,146.37
2023-04-21T02:42:36.915Z,145.68
2023-04-21T02:43:36.959Z,146.17
2023-04-21T02:44:36.973Z,145.65
2023-04-21T02:45:37.013Z,151.03
2023-04-21T02:46:37.097Z,150.24
2023-04-21T02:47:37.145Z,144.53
2023-04-21T02:48:37.143Z,149.44
2023-04-21T02:49:37.214Z,148.44
2023-04-21T02:50:37.332Z,146.30
2023-04-21T02:51:37.333Z,145.02
2023-04-21T02:52:37.319Z,148.38
2023-04-21T02:53:37.398Z,144.93
2023-04-21T02:54:37.405Z,150.09
2023-04-21T02:55:37.472Z,147.27
2023-04-21T02:56:37.485Z,143.67
2023-04-21T02:57:37.511Z,148.38
2023-04-21T02:58:37.604Z,147.53
2023-04-21T02:59:37.746Z,146.57
2023-04-21T03:01:56.967Z,25.00
2023-04-21T03:04:16.178Z,25.00
2023-04-21T03:05:16.007Z,25.00
2023-04-21T03:06:17.159Z,25.00
2023-04-21T03:07:15.730Z,25.00
2023-04-21T03:08:15.724Z,25.00
2023-04-21T03:09:15.794Z,31.28
2023-04-21T03:10:15.779Z,30.44
2023-04-21T03:11:15.874Z,29.68
2023-04-21T03:12:15.897Z,35.07
2023-04-21T03:13:15.966Z,30.96
2023-04-21T03:14:16.031Z,32.67
2023-04-21T03:15:16.895Z,30.57
2023-04-21T03:16:16.084Z,34.85
2023-04-21T03:17:16.174Z,33.45
2023-04-21T03:18:16.152Z,30.95
2023-04-21T03:19:16.260Z,33.17
2023-04-21T03:20:16.247Z,30.06
2023-04-21T03:21:16.296Z,32.67
2023-04-21T03:22:16.385Z,30.09
2023-04-21T03:23:16.462Z,31.13
2023-04-21T03:24:16.439Z,31.10
2023-04-21T03:25:16.446Z,31.54
2023-04-21T03:26:16.511Z,26.27
2023-04-21T03:27:16.528Z,31.20
2023-04-21T03:28:16.596Z,30.43
2023-04-21T03:29:16.671Z,34.60
2023-04-21T03:30:16.726Z,33.95
2023-04-21T03:31:16.730Z,29.11
2023-04-21T03:32:16.879Z,33.75
2023-04-21T03:33:16.801Z,30.65
2023-04-21T03:34:16.850Z,30.60
2023-04-21T03:35:16.886Z,33.55
2023-04-21T03:36:16.952Z,33.10
2023-04-21T03:37:16.996Z,32.83
2023-04-21T03:38:17.109Z,29.32
2023-04-21T03:40:17.109Z,30.77
2023-04-21T03:41:17.164Z,29.27
2023-04-21T03:42:17.204Z,34.52
2023-04-21T03:43:17.318Z,30.80
2023-04-21T03:44:17.322Z,34.13
2023-04-21T03:45:17.328Z,34.08
2023-04-21T03:46:17.443Z,31.36
2023-04-21T03:47:17.458Z,36.51
2023-04-21T03:48:17.462Z,30.96
2023-04-21T03:49:17.582Z,32.27
2023-04-21T03:50:17.558Z,33.14
2023-04-21T03:51:17.630Z,31.64
2023-04-21T03:52:17.790Z,34.06
2023-04-21T03:53:17.708Z,35.33
2023-04-21T03:54:17.758Z,31.80
2023-04-21T03:55:17.801Z,33.59
2023-04-21T03:56:17.849Z,34.91
2023-04-21T03:57:17.897Z,35.61
2023-04-21T03:58:17.917Z,30.29
2023-04-21T03:59:18.111Z,34.89
2023-04-21T04:00:18.051Z,32.55
2023-04-21T04:01:18.080Z,32.22
2023-04-21T04:02:18.187Z,36.55
2023-04-21T04:03:19.693Z,36.87
2023-04-21T04:04:18.343Z,38.67
2023-04-21T04:05:18.162Z,38.67
2023-04-21T04:06:18.130Z,34.86
2023-04-21T04:07:18.143Z,38.26
2023-04-21T04:08:18.106Z,32.95
2023-04-21T04:09:18.319Z,35.22
2023-04-21T04:10:18.076Z,38.34
2023-04-21T04:11:18.158Z,37.13
2023-04-21T04:12:18.091Z,34.35
2023-04-21T04:13:18.095Z,37.67
2023-04-21T04:14:18.059Z,36.06
2023-04-21T04:15:18.056Z,36.80
2023-04-21T04:16:18.118Z,36.01
2023-04-21T04:17:18.043Z,36.48
2023-04-21T04:18:18.049Z,37.20
2023-04-21T04:19:18.418Z,39.12
2023-04-21T04:20:18.021Z,37.18
2023-04-21T04:21:18.042Z,39.05
2023-04-21T04:22:18.006Z,37.03
2023-04-21T04:23:18.053Z,38.86
2023-04-21T04:24:18.012Z,37.12
2023-04-21T04:25:17.993Z,37.99
2023-04-21T04:26:17.975Z,39.36
2023-04-21T04:27:17.967Z,36.73
2023-04-21T04:28:17.955Z,35.79
2023-04-21T04:29:18.214Z,38.22
2023-04-21T04:30:17.952Z,38.00
2023-04-21T04:31:17.983Z,37.58
2023-04-21T04:32:17.973Z,38.90
2023-04-21T04:33:17.963Z,36.42
2023-04-21T04:34:17.941Z,36.59
2023-04-21T04:35:17.915Z,39.56
2023-04-21T04:36:17.934Z,39.56
2023-04-21T04:37:17.925Z,37.82
2023-04-21T04:38:17.894Z,39.58
2023-04-21T04:39:18.099Z,37.62
2023-04-21T04:40:17.876Z,38.15
2023-04-21T04:41:17.877Z,39.41
2023-04-21T04:42:17.874Z,37.96
2023-04-21T04:43:17.889Z,38.71
2023-04-21T04:44:18.044Z,37.42
2023-04-21T04:45:17.921Z,37.85
2023-04-21T04:46:17.841Z,39.78
2023-04-21T04:47:18.124Z,37.17
2023-04-21T04:48:17.896Z,38.86
2023-04-21T04:49:17.911Z,36.48
2023-04-21T04:50:17.935Z,39.82
2023-04-21T04:51:17.980Z,41.06
2023-04-21T04:52:18.074Z,38.99
2023-04-21T04:53:18.178Z,40.37
2023-04-21T04:54:18.358Z,35.17
2023-04-21T04:55:18.195Z,41.19
2023-04-21T04:56:18.230Z,38.67
2023-04-21T04:57:18.258Z,40.25
2023-04-21T04:58:18.265Z,40.47
2023-04-21T04:59:18.329Z,37.52
2023-04-21T05:00:18.355Z,40.20
2023-04-21T05:01:18.460Z,39.98
2023-04-21T05:02:18.541Z,40.45
2023-04-21T05:03:18.721Z,39.70
2023-04-21T05:04:18.727Z,37.21
2023-04-21T05:05:18.605Z,40.72
2023-04-21T05:06:18.621Z,37.46
2023-04-21T05:07:18.942Z,41.43
2023-04-21T05:08:18.818Z,37.98
2023-04-21T05:09:18.734Z,40.21
2023-04-21T05:10:18.778Z,41.22
2023-04-21T05:11:18.877Z,39.50
2023-04-21T05:12:18.894Z,38.44
2023-04-21T05:13:19.067Z,36.84
2023-04-21T05:14:19.083Z,41.97
2023-04-21T05:15:19.035Z,37.58
2023-04-21T05:16:19.166Z,39.32
2023-04-21T05:17:19.187Z,43.20
2023-04-21T05:18:19.168Z,40.95
2023-04-21T05:19:19.179Z,35.82
2023-04-21T05:20:19.252Z,35.53
2023-04-21T05:21:19.352Z,35.78
2023-04-21T05:22:19.358Z,49.17
2023-04-21T05:23:19.370Z,59.55
2023-04-21T05:24:19.571Z,60.97
2023-04-21T05:25:19.494Z,62.98
2023-04-21T05:26:19.563Z,65.59
2023-04-21T05:27:19.645Z,65.62
2023-04-21T05:28:19.776Z,67.60
2023-04-21T05:29:19.716Z,65.87
2023-04-21T05:30:19.776Z,59.20
2023-04-21T05:31:20.183Z,52.02
2023-04-21T05:32:21.058Z,39.27
2023-04-21T05:33:20.473Z,40.63
2023-04-21T05:34:20.087Z,40.04
2023-04-21T05:35:20.715Z,32.30
2023-04-21T05:36:20.226Z,24.24
2023-04-21T05:37:20.747Z,39.25
2023-04-21T05:38:20.280Z,30.61
2023-04-21T05:39:20.333Z,21.09
2023-04-21T05:40:20.460Z,19.05
2023-04-21T05:41:20.611Z,13.95
2023-04-21T05:42:21.237Z,39.05
2023-04-21T05:43:20.853Z,33.81
2023-04-21T05:44:20.827Z,37.10
2023-04-21T05:45:20.769Z,25.00
2023-04-21T05:46:20.784Z,41.74
2023-04-21T05:47:21.011Z,47.98
2023-04-21T05:48:22.467Z,40.52
2023-04-21T05:49:21.627Z,28.75
2023-04-21T05:50:20.797Z,25.92
2023-04-21T05:51:20.710Z,27.21
2023-04-21T05:52:21.786Z,33.37
2023-04-21T05:53:20.845Z,33.80
2023-04-21T05:54:20.925Z,31.02
2023-04-21T05:55:20.840Z,31.48
2023-04-21T05:56:20.757Z,30.03
2023-04-21T05:57:20.755Z,35.83
2023-04-21T05:58:20.925Z,33.66
2023-04-21T05:59:31.022Z,36.30
2023-04-21T06:00:21.034Z,36.86
2023-04-21T06:01:21.220Z,37.25
2023-04-21T06:02:22.096Z,37.57
2023-04-21T06:03:21.096Z,39.73
2023-04-21T06:04:21.024Z,41.01
2023-04-21T06:05:20.855Z,43.05
2023-04-21T06:06:20.788Z,45.95
2023-04-21T06:07:20.743Z,43.59
2023-04-21T06:08:20.783Z,45.54
2023-04-21T06:09:20.688Z,46.23
2023-04-21T06:10:20.691Z,44.18
2023-04-21T06:11:20.684Z,46.81
2023-04-21T06:12:20.748Z,46.33
2023-04-21T06:13:20.714Z,45.00
2023-04-21T06:14:20.837Z,46.94
2023-04-21T06:15:20.697Z,47.12
2023-04-21T06:16:20.732Z,46.13
2023-04-21T06:17:21.293Z,49.28
2023-04-21T06:18:21.585Z,44.59
2023-04-21T06:19:20.714Z,45.25
2023-04-21T06:20:20.783Z,48.23
2023-04-21T06:21:20.701Z,47.51
2023-04-21T06:22:20.774Z,47.20
2023-04-21T06:23:20.805Z,49.09
2023-04-21T06:24:20.840Z,44.41
2023-04-21T06:25:20.810Z,49.17
2023-04-21T06:26:20.881Z,47.86
2023-04-21T06:27:20.985Z,47.56
2023-04-21T06:28:21.085Z,48.33
2023-04-21T06:29:21.196Z,48.41
2023-04-21T06:30:21.128Z,49.61
2023-04-21T06:31:21.403Z,50.23
2023-04-21T06:32:21.575Z,48.67
2023-04-21T06:33:21.275Z,49.05
2023-04-21T06:34:21.640Z,52.48
2023-04-21T06:35:22.015Z,52.00
2023-04-21T06:36:21.456Z,48.09
2023-04-21T06:37:21.561Z,49.09
2023-04-21T06:38:21.517Z,49.18
2023-04-21T06:39:21.540Z,49.31
2023-04-21T06:40:21.673Z,50.23
2023-04-21T06:41:22.904Z,51.60
2023-04-21T06:42:22.156Z,52.20
2023-04-21T06:43:21.574Z,56.79
2023-04-21T06:44:21.738Z,57.78
2023-04-21T06:45:21.584Z,54.95
2023-04-21T06:46:21.541Z,55.76
2023-04-21T06:47:21.810Z,55.03
2023-04-21T06:48:21.567Z,53.50
2023-04-21T06:49:21.920Z,52.96
2023-04-21T06:50:21.629Z,54.32
2023-04-21T06:51:21.649Z,51.31
2023-04-21T06:52:22.030Z,54.27
2023-04-21T06:53:21.590Z,50.94
2023-04-21T06:54:34.740Z,54.49
2023-04-21T06:55:22.122Z,55.27
2023-04-21T06:57:44.497Z,25.00
2023-04-21T06:58:40.591Z,25.00
2023-04-21T06:59:40.497Z,25.00
2023-04-21T07:00:40.789Z,25.00
2023-04-21T07:01:40.587Z,25.00
2023-04-21T07:02:41.332Z,25.00
2023-04-21T07:03:40.542Z,25.23
2023-04-21T07:04:40.551Z,26.29
2023-04-21T07:05:40.582Z,26.92
2023-04-21T07:06:41.326Z,27.14
2023-04-21T07:07:40.826Z,27.42
2023-04-21T07:08:40.489Z,25.00
2023-04-21T07:09:40.704Z,30.00
2023-04-21T07:10:40.469Z,26.62
2023-04-21T07:11:40.731Z,29.83
2023-04-21T07:12:40.800Z,28.92
2023-04-21T07:13:40.615Z,28.27
2023-04-21T07:14:40.472Z,27.87
2023-04-21T07:15:40.367Z,26.07
2023-04-21T07:16:41.442Z,26.22
2023-04-21T07:17:40.479Z,29.91
2023-04-21T07:18:40.367Z,28.72
2023-04-21T07:19:40.441Z,28.67
2023-04-21T07:20:40.508Z,26.19
2023-04-21T07:21:40.461Z,26.07
2023-04-21T07:22:40.416Z,26.17
2023-04-21T07:27:26.599Z,25.00
2023-04-21T07:28:27.776Z,25.00
2023-04-21T07:31:29.868Z,25.00
2023-04-21T07:32:29.617Z,25.00
2023-04-21T07:36:12.097Z,25.00
2023-04-21T07:42:42.679Z,25.00
2023-04-21T07:43:44.003Z,25.00
2023-04-21T07:46:03.050Z,25.00
2023-04-21T07:49:48.769Z,25.00
2023-04-21T07:54:03.982Z,25.00
2023-04-21T07:56:59.152Z,25.00
2023-04-21T08:40:45.350Z,25.00
2023-04-21T08:44:23.117Z,25.00
2023-04-21T08:58:39.035Z,25.00
2023-04-21T09:14:21.135Z,25.00
2023-04-21T09:17:12.596Z,25.00
2023-04-21T09:18:23.437Z,25.00
2023-04-21T09:29:03.395Z,25.00
2023-04-21T10:31:18.472Z,25.00
2023-04-21T10:32:13.604Z,25.00
2023-04-21T10:34:30.470Z,25.00
2023-04-21T10:51:09.161Z,25.00
2023-04-21T10:55:34.734Z,25.00
2023-04-21T11:00:22.380Z,25.00
2023-04-21T11:02:44.710Z,25.00
2023-04-21T11:05:10.329Z,25.00
2023-04-21T11:06:10.806Z,25.00
2023-04-21T11:08:37.758Z,25.00
2023-04-21T11:10:56.304Z,25.00
2023-04-21T11:15:55.684Z,25.00
2023-04-21T11:17:08.750Z,25.00
2023-04-21T11:17:59.304Z,25.00
2023-04-21T11:18:54.497Z,25.00
2023-04-21T11:21:13.340Z,25.00
2023-04-21T11:22:13.033Z,25.00
2023-04-21T11:38:24.312Z,25.00
2023-04-21T11:39:26.981Z,25.00
2023-04-21T11:40:26.333Z,25.00
2023-04-21T11:42:44.326Z,25.00
2023-04-21T11:45:01.173Z,25.00
2023-04-21T11:47:21.388Z,25.00
2023-04-21T12:04:25.161Z,25.00
2023-04-21T12:06:48.561Z,25.00
2023-04-21T12:07:45.505Z,25.00
2023-04-21T14:59:19.656Z,25.00
2023-04-21T16:34:33.512Z,25.00
2023-04-21T16:52:16.453Z,25.00
2023-04-21T17:05:39.772Z,25.00
2023-04-21T17:13:10.267Z,25.00
2023-04-21T17:53:58.979Z,25.00
2023-04-21T18:04:49.450Z,25.00
2023-04-21T18:05:44.658Z,25.00
2023-04-21T18:15:13.446Z,25.00
2023-04-21T18:28:08.898Z,25.00
2023-04-21T18:42:44.889Z,25.00
2023-04-21T19:04:22.245Z,25.00
2023-04-21T19:05:20.710Z,25.00
2023-04-21T21:34:39.384Z,25.00
2023-04-21T21:39:47.999Z,25.00
2023-04-21T21:43:27.235Z,25.00
2023-04-21T21:47:51.730Z,25.00
2023-04-21T21:51:52.741Z,25.00
2023-04-21T21:57:58.036Z,25.00
2023-04-21T22:01:49.822Z,25.00
2023-04-21T22:13:24.257Z,25.00
2023-04-21T22:16:37.937Z,25.00
2023-04-21T22:27:06.198Z,25.00
2023-04-21T22:31:22.872Z,25.00
2023-04-21T22:32:31.046Z,25.00
2023-04-21T22:34:50.244Z,25.00
2023-04-21T22:39:21.614Z,25.00
2023-04-21T22:42:04.511Z,25.00
2023-04-21T22:51:04.056Z,25.00
2023-04-21T22:54:24.685Z,25.00
2023-04-21T23:00:17.302Z,25.00
2023-04-21T23:16:26.269Z,25.00
2023-04-21T23:17:24.422Z,25.00
2023-04-21T23:33:36.441Z,25.00
2023-04-21T23:39:54.137Z,25.00
2023-04-21T23:42:17.429Z,25.00
2023-04-21T23:46:28.024Z,25.00
2023-04-21T23:49:19.722Z,25.00
2023-04-21T23:54:29.733Z,25.00
